sensor_id;sensor_type;location;lat;lon;timestamp;P1;durP1;ratioP1;P2;durP2;ratioP2
22070;SDS011;11200;51.488;6.668;2023-06-14T00:00:47;5.35;;;4.68;;
22070;SDS011;11200;51.488;6.668;2023-06-14T00:03:13;4.93;;;4.50;;
22070;SDS011;11200;51.488;6.668;2023-06-14T00:05:42;5.22;;;4.80;;
22070;SDS011;11200;51.488;6.668;2023-06-14T00:08:08;5.80;;;4.50;;
22070;SDS011;11200;51.488;6.668;2023-06-14T00:10:36;5.80;;;5.10;;
22070;SDS011;11200;51.488;6.668;2023-06-14T00:13:05;6.00;;;4.90;;
22070;SDS011;11200;51.488;6.668;2023-06-14T00:15:32;6.75;;;4.72;;
22070;SDS011;11200;51.488;6.668;2023-06-14T00:17:58;7.03;;;4.90;;
22070;SDS011;11200;51.488;6.668;2023-06-14T00:20:26;5.68;;;4.93;;
22070;SDS011;11200;51.488;6.668;2023-06-14T00:22:53;5.28;;;4.78;;
22070;SDS011;11200;51.488;6.668;2023-06-14T00:25:20;5.07;;;4.50;;
22070;SDS011;11200;51.488;6.668;2023-06-14T00:27:47;6.10;;;4.90;;
22070;SDS011;11200;51.488;6.668;2023-06-14T00:30:14;6.20;;;4.70;;
22070;SDS011;11200;51.488;6.668;2023-06-14T00:32:39;5.20;;;4.68;;
22070;SDS011;11200;51.488;6.668;2023-06-14T00:35:07;5.65;;;4.85;;
22070;SDS011;11200;51.488;6.668;2023-06-14T00:37:33;5.38;;;4.85;;
22070;SDS011;11200;51.488;6.668;2023-06-14T00:39:59;5.95;;;5.13;;
22070;SDS011;11200;51.488;6.668;2023-06-14T00:42:25;5.57;;;4.80;;
22070;SDS011;11200;51.488;6.668;2023-06-14T00:44:51;5.35;;;4.85;;
22070;SDS011;11200;51.488;6.668;2023-06-14T00:47:17;7.07;;;4.78;;
22070;SDS011;11200;51.488;6.668;2023-06-14T00:49:44;5.90;;;4.90;;
22070;SDS011;11200;51.488;6.668;2023-06-14T00:52:10;6.18;;;4.82;;
22070;SDS011;11200;51.488;6.668;2023-06-14T00:54:37;5.30;;;4.80;;
22070;SDS011;11200;51.488;6.668;2023-06-14T00:57:03;7.72;;;5.00;;
22070;SDS011;11200;51.488;6.668;2023-06-14T00:59:29;7.00;;;5.22;;
22070;SDS011;11200;51.488;6.668;2023-06-14T01:01:55;5.47;;;4.70;;
22070;SDS011;11200;51.488;6.668;2023-06-14T01:04:21;6.07;;;4.82;;
22070;SDS011;11200;51.488;6.668;2023-06-14T01:07:04;7.45;;;5.32;;
22070;SDS011;11200;51.488;6.668;2023-06-14T01:15:26;6.90;;;5.13;;
22070;SDS011;11200;51.488;6.668;2023-06-14T01:17:54;7.55;;;5.07;;
22070;SDS011;11200;51.488;6.668;2023-06-14T01:20:29;6.72;;;4.78;;
22070;SDS011;11200;51.488;6.668;2023-06-14T01:22:57;6.55;;;5.03;;
22070;SDS011;11200;51.488;6.668;2023-06-14T01:25:23;5.80;;;4.72;;
22070;SDS011;11200;51.488;6.668;2023-06-14T01:27:51;5.85;;;5.13;;
22070;SDS011;11200;51.488;6.668;2023-06-14T01:30:28;5.28;;;4.78;;
22070;SDS011;11200;51.488;6.668;2023-06-14T01:32:56;5.38;;;4.63;;
22070;SDS011;11200;51.488;6.668;2023-06-14T01:35:22;6.28;;;4.95;;
22070;SDS011;11200;51.488;6.668;2023-06-14T01:37:48;6.45;;;5.00;;
22070;SDS011;11200;51.488;6.668;2023-06-14T01:40:15;7.90;;;5.00;;
22070;SDS011;11200;51.488;6.668;2023-06-14T01:42:42;5.45;;;4.53;;
22070;SDS011;11200;51.488;6.668;2023-06-14T01:45:11;6.82;;;4.78;;
22070;SDS011;11200;51.488;6.668;2023-06-14T01:47:37;8.40;;;4.90;;
22070;SDS011;11200;51.488;6.668;2023-06-14T01:50:03;6.18;;;4.68;;
22070;SDS011;11200;51.488;6.668;2023-06-14T01:52:29;5.93;;;4.63;;
22070;SDS011;11200;51.488;6.668;2023-06-14T01:54:55;6.43;;;4.55;;
22070;SDS011;11200;51.488;6.668;2023-06-14T01:57:21;7.25;;;4.80;;
22070;SDS011;11200;51.488;6.668;2023-06-14T01:59:47;5.53;;;4.80;;
22070;SDS011;11200;51.488;6.668;2023-06-14T02:02:14;6.35;;;5.03;;
22070;SDS011;11200;51.488;6.668;2023-06-14T02:04:40;6.38;;;4.72;;
22070;SDS011;11200;51.488;6.668;2023-06-14T02:07:06;6.32;;;4.43;;
22070;SDS011;11200;51.488;6.668;2023-06-14T02:09:33;6.15;;;4.63;;
22070;SDS011;11200;51.488;6.668;2023-06-14T02:11:59;5.75;;;4.65;;
22070;SDS011;11200;51.488;6.668;2023-06-14T02:14:25;5.97;;;4.72;;
22070;SDS011;11200;51.488;6.668;2023-06-14T02:16:51;4.88;;;4.32;;
22070;SDS011;11200;51.488;6.668;2023-06-14T02:19:18;5.93;;;4.45;;
22070;SDS011;11200;51.488;6.668;2023-06-14T02:21:44;6.13;;;4.28;;
22070;SDS011;11200;51.488;6.668;2023-06-14T02:24:10;6.10;;;4.90;;
22070;SDS011;11200;51.488;6.668;2023-06-14T02:26:36;4.32;;;3.92;;
22070;SDS011;11200;51.488;6.668;2023-06-14T02:29:03;4.88;;;4.25;;
22070;SDS011;11200;51.488;6.668;2023-06-14T02:31:34;4.97;;;4.22;;
22070;SDS011;11200;51.488;6.668;2023-06-14T02:34:01;5.15;;;4.53;;
22070;SDS011;11200;51.488;6.668;2023-06-14T02:36:27;5.05;;;4.18;;
22070;SDS011;11200;51.488;6.668;2023-06-14T02:38:55;5.35;;;4.28;;
22070;SDS011;11200;51.488;6.668;2023-06-14T02:41:22;5.25;;;4.35;;
22070;SDS011;11200;51.488;6.668;2023-06-14T02:43:49;5.95;;;4.20;;
22070;SDS011;11200;51.488;6.668;2023-06-14T02:46:14;6.03;;;4.03;;
22070;SDS011;11200;51.488;6.668;2023-06-14T02:48:40;4.68;;;4.15;;
22070;SDS011;11200;51.488;6.668;2023-06-14T02:51:06;4.47;;;3.83;;
22070;SDS011;11200;51.488;6.668;2023-06-14T02:53:33;5.03;;;4.10;;
22070;SDS011;11200;51.488;6.668;2023-06-14T02:55:59;5.75;;;4.55;;
22070;SDS011;11200;51.488;6.668;2023-06-14T02:58:25;4.82;;;4.20;;
22070;SDS011;11200;51.488;6.668;2023-06-14T03:00:51;4.20;;;3.80;;
22070;SDS011;11200;51.488;6.668;2023-06-14T03:03:20;4.18;;;3.60;;
22070;SDS011;11200;51.488;6.668;2023-06-14T03:05:47;6.28;;;4.20;;
22070;SDS011;11200;51.488;6.668;2023-06-14T03:08:17;4.68;;;4.10;;
22070;SDS011;11200;51.488;6.668;2023-06-14T03:10:47;4.43;;;4.00;;
22070;SDS011;11200;51.488;6.668;2023-06-14T03:13:14;4.43;;;3.70;;
22070;SDS011;11200;51.488;6.668;2023-06-14T03:15:41;4.35;;;3.95;;
22070;SDS011;11200;51.488;6.668;2023-06-14T03:18:10;4.28;;;3.88;;
22070;SDS011;11200;51.488;6.668;2023-06-14T03:20:37;5.05;;;3.92;;
22070;SDS011;11200;51.488;6.668;2023-06-14T03:23:03;5.13;;;4.13;;
22070;SDS011;11200;51.488;6.668;2023-06-14T03:25:30;4.43;;;3.80;;
22070;SDS011;11200;51.488;6.668;2023-06-14T03:27:56;4.75;;;3.72;;
22070;SDS011;11200;51.488;6.668;2023-06-14T03:30:22;4.43;;;3.85;;
22070;SDS011;11200;51.488;6.668;2023-06-14T03:32:48;6.40;;;4.18;;
22070;SDS011;11200;51.488;6.668;2023-06-14T03:35:13;5.95;;;3.90;;
22070;SDS011;11200;51.488;6.668;2023-06-14T03:37:45;4.38;;;3.75;;
22070;SDS011;11200;51.488;6.668;2023-06-14T03:40:12;4.57;;;4.05;;
22070;SDS011;11200;51.488;6.668;2023-06-14T03:42:38;4.88;;;4.07;;
22070;SDS011;11200;51.488;6.668;2023-06-14T03:45:05;6.22;;;3.97;;
22070;SDS011;11200;51.488;6.668;2023-06-14T03:47:33;5.25;;;3.97;;
22070;SDS011;11200;51.488;6.668;2023-06-14T03:49:59;5.15;;;4.13;;
22070;SDS011;11200;51.488;6.668;2023-06-14T03:52:26;5.55;;;4.05;;
22070;SDS011;11200;51.488;6.668;2023-06-14T03:54:52;4.30;;;3.83;;
22070;SDS011;11200;51.488;6.668;2023-06-14T03:57:18;5.43;;;3.97;;
22070;SDS011;11200;51.488;6.668;2023-06-14T03:59:44;4.78;;;4.15;;
22070;SDS011;11200;51.488;6.668;2023-06-14T04:02:09;5.32;;;3.60;;
22070;SDS011;11200;51.488;6.668;2023-06-14T04:04:43;5.53;;;3.95;;
22070;SDS011;11200;51.488;6.668;2023-06-14T04:07:16;5.10;;;4.05;;
22070;SDS011;11200;51.488;6.668;2023-06-14T04:09:45;4.38;;;3.75;;
22070;SDS011;11200;51.488;6.668;2023-06-14T04:12:14;4.68;;;4.13;;
22070;SDS011;11200;51.488;6.668;2023-06-14T04:14:39;5.45;;;4.20;;
22070;SDS011;11200;51.488;6.668;2023-06-14T04:17:06;4.68;;;3.60;;
22070;SDS011;11200;51.488;6.668;2023-06-14T04:19:32;4.82;;;3.88;;
22070;SDS011;11200;51.488;6.668;2023-06-14T04:21:58;4.50;;;3.55;;
22070;SDS011;11200;51.488;6.668;2023-06-14T04:24:26;4.70;;;3.75;;
22070;SDS011;11200;51.488;6.668;2023-06-14T04:26:57;5.65;;;3.97;;
22070;SDS011;11200;51.488;6.668;2023-06-14T04:29:23;4.30;;;3.55;;
22070;SDS011;11200;51.488;6.668;2023-06-14T04:31:51;5.22;;;4.03;;
22070;SDS011;11200;51.488;6.668;2023-06-14T04:34:19;4.20;;;3.70;;
22070;SDS011;11200;51.488;6.668;2023-06-14T04:36:46;4.88;;;3.72;;
22070;SDS011;11200;51.488;6.668;2023-06-14T04:39:18;3.97;;;3.38;;
22070;SDS011;11200;51.488;6.668;2023-06-14T04:41:45;5.13;;;3.88;;
22070;SDS011;11200;51.488;6.668;2023-06-14T04:44:11;4.20;;;3.40;;
22070;SDS011;11200;51.488;6.668;2023-06-14T04:46:37;5.57;;;3.60;;
22070;SDS011;11200;51.488;6.668;2023-06-14T04:49:11;4.22;;;3.50;;
22070;SDS011;11200;51.488;6.668;2023-06-14T04:54:08;4.43;;;3.75;;
22070;SDS011;11200;51.488;6.668;2023-06-14T04:56:40;4.10;;;3.40;;
22070;SDS011;11200;51.488;6.668;2023-06-14T04:59:13;6.18;;;3.45;;
22070;SDS011;11200;51.488;6.668;2023-06-14T05:01:40;4.05;;;3.38;;
22070;SDS011;11200;51.488;6.668;2023-06-14T05:04:06;3.85;;;3.20;;
22070;SDS011;11200;51.488;6.668;2023-06-14T05:06:31;6.65;;;3.90;;
22070;SDS011;11200;51.488;6.668;2023-06-14T05:08:57;6.10;;;3.60;;
22070;SDS011;11200;51.488;6.668;2023-06-14T05:11:23;6.03;;;3.78;;
22070;SDS011;11200;51.488;6.668;2023-06-14T05:13:49;4.55;;;3.60;;
22070;SDS011;11200;51.488;6.668;2023-06-14T05:16:15;6.20;;;3.70;;
22070;SDS011;11200;51.488;6.668;2023-06-14T05:18:44;4.50;;;3.45;;
22070;SDS011;11200;51.488;6.668;2023-06-14T05:21:10;6.75;;;3.80;;
22070;SDS011;11200;51.488;6.668;2023-06-14T05:23:36;6.03;;;3.28;;
22070;SDS011;11200;51.488;6.668;2023-06-14T05:26:02;4.15;;;3.40;;
22070;SDS011;11200;51.488;6.668;2023-06-14T05:28:29;5.13;;;3.60;;
22070;SDS011;11200;51.488;6.668;2023-06-14T05:30:55;4.43;;;3.60;;
22070;SDS011;11200;51.488;6.668;2023-06-14T05:33:21;5.68;;;3.60;;
22070;SDS011;11200;51.488;6.668;2023-06-14T05:35:47;5.78;;;3.92;;
22070;SDS011;11200;51.488;6.668;2023-06-14T05:38:16;5.28;;;3.50;;
22070;SDS011;11200;51.488;6.668;2023-06-14T05:40:41;5.43;;;3.60;;
22070;SDS011;11200;51.488;6.668;2023-06-14T05:43:07;4.75;;;3.35;;
22070;SDS011;11200;51.488;6.668;2023-06-14T05:45:32;4.95;;;3.67;;
22070;SDS011;11200;51.488;6.668;2023-06-14T05:47:58;6.30;;;3.42;;
22070;SDS011;11200;51.488;6.668;2023-06-14T05:50:24;5.32;;;3.53;;
22070;SDS011;11200;51.488;6.668;2023-06-14T05:52:49;5.28;;;3.60;;
22070;SDS011;11200;51.488;6.668;2023-06-14T05:55:16;5.30;;;3.90;;
22070;SDS011;11200;51.488;6.668;2023-06-14T05:57:41;5.00;;;3.30;;
22070;SDS011;11200;51.488;6.668;2023-06-14T06:00:08;7.43;;;3.90;;
22070;SDS011;11200;51.488;6.668;2023-06-14T06:02:39;4.20;;;3.30;;
22070;SDS011;11200;51.488;6.668;2023-06-14T06:05:06;4.40;;;3.55;;
22070;SDS011;11200;51.488;6.668;2023-06-14T06:07:35;5.32;;;3.55;;
22070;SDS011;11200;51.488;6.668;2023-06-14T06:10:02;4.15;;;3.40;;
22070;SDS011;11200;51.488;6.668;2023-06-14T06:12:29;7.50;;;3.75;;
22070;SDS011;11200;51.488;6.668;2023-06-14T06:14:54;5.60;;;3.90;;
22070;SDS011;11200;51.488;6.668;2023-06-14T06:17:20;6.35;;;3.35;;
22070;SDS011;11200;51.488;6.668;2023-06-14T06:19:46;5.75;;;3.53;;
22070;SDS011;11200;51.488;6.668;2023-06-14T06:22:11;5.78;;;3.50;;
22070;SDS011;11200;51.488;6.668;2023-06-14T06:24:37;5.65;;;3.63;;
22070;SDS011;11200;51.488;6.668;2023-06-14T06:27:03;4.18;;;3.35;;
22070;SDS011;11200;51.488;6.668;2023-06-14T06:29:29;5.95;;;3.83;;
22070;SDS011;11200;51.488;6.668;2023-06-14T06:31:54;4.97;;;3.40;;
22070;SDS011;11200;51.488;6.668;2023-06-14T06:34:21;5.50;;;3.67;;
22070;SDS011;11200;51.488;6.668;2023-06-14T06:36:50;5.55;;;3.55;;
22070;SDS011;11200;51.488;6.668;2023-06-14T06:39:16;4.93;;;3.67;;
22070;SDS011;11200;51.488;6.668;2023-06-14T06:41:41;5.78;;;4.00;;
22070;SDS011;11200;51.488;6.668;2023-06-14T06:44:07;4.05;;;3.17;;
22070;SDS011;11200;51.488;6.668;2023-06-14T06:46:33;4.38;;;3.20;;
22070;SDS011;11200;51.488;6.668;2023-06-14T06:49:02;4.78;;;3.33;;
22070;SDS011;11200;51.488;6.668;2023-06-14T06:51:28;6.40;;;3.35;;
22070;SDS011;11200;51.488;6.668;2023-06-14T06:53:53;5.93;;;3.47;;
22070;SDS011;11200;51.488;6.668;2023-06-14T06:56:20;4.68;;;2.97;;
22070;SDS011;11200;51.488;6.668;2023-06-14T06:58:48;3.67;;;2.95;;
22070;SDS011;11200;51.488;6.668;2023-06-14T07:01:15;5.68;;;3.10;;
22070;SDS011;11200;51.488;6.668;2023-06-14T07:03:40;5.38;;;3.10;;
22070;SDS011;11200;51.488;6.668;2023-06-14T07:06:06;4.53;;;3.03;;
22070;SDS011;11200;51.488;6.668;2023-06-14T07:08:32;5.25;;;2.58;;
22070;SDS011;11200;51.488;6.668;2023-06-14T07:10:58;4.13;;;2.83;;
22070;SDS011;11200;51.488;6.668;2023-06-14T07:13:23;5.55;;;2.65;;
22070;SDS011;11200;51.488;6.668;2023-06-14T07:15:49;5.05;;;2.70;;
22070;SDS011;11200;51.488;6.668;2023-06-14T07:18:18;3.03;;;2.30;;
22070;SDS011;11200;51.488;6.668;2023-06-14T07:20:43;3.97;;;2.50;;
22070;SDS011;11200;51.488;6.668;2023-06-14T07:23:09;4.80;;;2.58;;
22070;SDS011;11200;51.488;6.668;2023-06-14T07:25:35;3.33;;;2.50;;
22070;SDS011;11200;51.488;6.668;2023-06-14T07:28:01;5.00;;;2.58;;
22070;SDS011;11200;51.488;6.668;2023-06-14T07:30:27;3.70;;;2.42;;
22070;SDS011;11200;51.488;6.668;2023-06-14T07:32:55;3.25;;;2.08;;
22070;SDS011;11200;51.488;6.668;2023-06-14T07:35:21;3.35;;;2.20;;
22070;SDS011;11200;51.488;6.668;2023-06-14T07:37:46;2.75;;;2.15;;
22070;SDS011;11200;51.488;6.668;2023-06-14T07:40:12;3.33;;;2.30;;
22070;SDS011;11200;51.488;6.668;2023-06-14T07:42:38;5.35;;;2.53;;
22070;SDS011;11200;51.488;6.668;2023-06-14T07:45:04;4.07;;;2.20;;
22070;SDS011;11200;51.488;6.668;2023-06-14T07:47:31;4.30;;;2.35;;
22070;SDS011;11200;51.488;6.668;2023-06-14T07:49:56;3.75;;;2.20;;
22070;SDS011;11200;51.488;6.668;2023-06-14T07:52:22;3.53;;;2.25;;
22070;SDS011;11200;51.488;6.668;2023-06-14T07:54:48;2.63;;;2.42;;
22070;SDS011;11200;51.488;6.668;2023-06-14T07:57:13;3.33;;;2.13;;
22070;SDS011;11200;51.488;6.668;2023-06-14T07:59:39;3.72;;;2.40;;
22070;SDS011;11200;51.488;6.668;2023-06-14T08:02:05;5.72;;;2.70;;
22070;SDS011;11200;51.488;6.668;2023-06-14T08:04:32;3.13;;;2.03;;
22070;SDS011;11200;51.488;6.668;2023-06-14T08:06:58;4.75;;;2.30;;
22070;SDS011;11200;51.488;6.668;2023-06-14T08:09:25;3.60;;;2.08;;
22070;SDS011;11200;51.488;6.668;2023-06-14T08:11:52;3.28;;;2.20;;
22070;SDS011;11200;51.488;6.668;2023-06-14T08:14:18;3.15;;;1.88;;
22070;SDS011;11200;51.488;6.668;2023-06-14T08:16:43;4.10;;;2.05;;
22070;SDS011;11200;51.488;6.668;2023-06-14T08:19:09;2.83;;;2.10;;
22070;SDS011;11200;51.488;6.668;2023-06-14T08:21:35;2.92;;;2.28;;
22070;SDS011;11200;51.488;6.668;2023-06-14T08:24:01;2.63;;;2.08;;
22070;SDS011;11200;51.488;6.668;2023-06-14T08:26:28;3.10;;;2.20;;
22070;SDS011;11200;51.488;6.668;2023-06-14T08:28:55;3.42;;;1.98;;
22070;SDS011;11200;51.488;6.668;2023-06-14T08:31:21;4.20;;;1.80;;
22070;SDS011;11200;51.488;6.668;2023-06-14T08:33:47;2.47;;;2.10;;
22070;SDS011;11200;51.488;6.668;2023-06-14T08:36:12;3.25;;;2.08;;
22070;SDS011;11200;51.488;6.668;2023-06-14T08:38:39;2.78;;;1.90;;
22070;SDS011;11200;51.488;6.668;2023-06-14T08:41:05;4.50;;;2.20;;
22070;SDS011;11200;51.488;6.668;2023-06-14T08:43:31;2.92;;;2.00;;
22070;SDS011;11200;51.488;6.668;2023-06-14T08:45:58;3.15;;;2.20;;
22070;SDS011;11200;51.488;6.668;2023-06-14T08:48:29;2.10;;;1.90;;
22070;SDS011;11200;51.488;6.668;2023-06-14T08:50:59;2.85;;;2.03;;
22070;SDS011;11200;51.488;6.668;2023-06-14T08:53:30;2.58;;;2.00;;
22070;SDS011;11200;51.488;6.668;2023-06-14T08:55:57;3.08;;;1.85;;
22070;SDS011;11200;51.488;6.668;2023-06-14T08:58:26;2.85;;;2.10;;
22070;SDS011;11200;51.488;6.668;2023-06-14T09:00:54;4.55;;;2.00;;
22070;SDS011;11200;51.488;6.668;2023-06-14T09:03:21;3.38;;;1.90;;
22070;SDS011;11200;51.488;6.668;2023-06-14T09:05:48;2.60;;;1.90;;
22070;SDS011;11200;51.488;6.668;2023-06-14T09:08:18;2.15;;;1.70;;
22070;SDS011;11200;51.488;6.668;2023-06-14T09:10:47;2.10;;;1.90;;
22070;SDS011;11200;51.488;6.668;2023-06-14T09:13:12;3.05;;;2.00;;
22070;SDS011;11200;51.488;6.668;2023-06-14T09:15:38;2.95;;;1.90;;
22070;SDS011;11200;51.488;6.668;2023-06-14T09:18:04;2.30;;;1.83;;
22070;SDS011;11200;51.488;6.668;2023-06-14T09:20:31;2.78;;;2.10;;
22070;SDS011;11200;51.488;6.668;2023-06-14T09:22:57;3.30;;;2.08;;
22070;SDS011;11200;51.488;6.668;2023-06-14T09:25:24;1.95;;;1.80;;
22070;SDS011;11200;51.488;6.668;2023-06-14T09:27:51;2.72;;;1.80;;
22070;SDS011;11200;51.488;6.668;2023-06-14T09:30:19;2.30;;;1.95;;
22070;SDS011;11200;51.488;6.668;2023-06-14T09:32:45;3.63;;;1.92;;
22070;SDS011;11200;51.488;6.668;2023-06-14T09:35:11;3.17;;;1.83;;
22070;SDS011;11200;51.488;6.668;2023-06-14T09:37:36;3.03;;;1.65;;
22070;SDS011;11200;51.488;6.668;2023-06-14T09:40:03;1.98;;;1.73;;
22070;SDS011;11200;51.488;6.668;2023-06-14T09:42:29;3.40;;;1.50;;
22070;SDS011;11200;51.488;6.668;2023-06-14T09:44:56;3.40;;;1.80;;
22070;SDS011;11200;51.488;6.668;2023-06-14T09:47:22;2.20;;;1.50;;
22070;SDS011;11200;51.488;6.668;2023-06-14T09:49:48;1.83;;;1.70;;
22070;SDS011;11200;51.488;6.668;2023-06-14T09:52:19;3.45;;;1.55;;
22070;SDS011;11200;51.488;6.668;2023-06-14T09:54:46;2.00;;;1.73;;
22070;SDS011;11200;51.488;6.668;2023-06-14T09:57:14;1.77;;;1.63;;
22070;SDS011;11200;51.488;6.668;2023-06-14T09:59:42;3.65;;;1.73;;
22070;SDS011;11200;51.488;6.668;2023-06-14T10:02:21;1.75;;;1.65;;
22070;SDS011;11200;51.488;6.668;2023-06-14T10:07:53;1.88;;;1.70;;
22070;SDS011;11200;51.488;6.668;2023-06-14T10:10:29;1.83;;;1.67;;
22070;SDS011;11200;51.488;6.668;2023-06-14T10:12:55;1.80;;;1.70;;
22070;SDS011;11200;51.488;6.668;2023-06-14T10:15:30;1.83;;;1.60;;
22070;SDS011;11200;51.488;6.668;2023-06-14T10:18:09;1.88;;;1.67;;
22070;SDS011;11200;51.488;6.668;2023-06-14T10:20:51;1.92;;;1.48;;
22070;SDS011;11200;51.488;6.668;2023-06-14T10:23:22;2.10;;;1.80;;
22070;SDS011;11200;51.488;6.668;2023-06-14T10:25:54;1.60;;;1.50;;
22070;SDS011;11200;51.488;6.668;2023-06-14T10:28:21;1.48;;;1.38;;
22070;SDS011;11200;51.488;6.668;2023-06-14T10:33:53;1.50;;;1.40;;
22070;SDS011;11200;51.488;6.668;2023-06-14T10:41:49;1.50;;;1.40;;
22070;SDS011;11200;51.488;6.668;2023-06-14T10:46:49;1.30;;;1.20;;
22070;SDS011;11200;51.488;6.668;2023-06-14T10:49:36;1.50;;;1.25;;
22070;SDS011;11200;51.488;6.668;2023-06-14T10:52:09;2.63;;;1.23;;
22070;SDS011;11200;51.488;6.668;2023-06-14T10:57:38;1.40;;;1.10;;
22070;SDS011;11200;51.488;6.668;2023-06-14T11:00:05;1.40;;;1.30;;
22070;SDS011;11200;51.488;6.668;2023-06-14T11:05:55;2.25;;;1.33;;
22070;SDS011;11200;51.488;6.668;2023-06-14T11:11:06;2.28;;;1.20;;
22070;SDS011;11200;51.488;6.668;2023-06-14T11:13:41;1.35;;;1.23;;
22070;SDS011;11200;51.488;6.668;2023-06-14T11:16:18;1.55;;;1.10;;
22070;SDS011;11200;51.488;6.668;2023-06-14T11:18:44;3.15;;;1.25;;
22070;SDS011;11200;51.488;6.668;2023-06-14T11:21:17;1.33;;;1.10;;
22070;SDS011;11200;51.488;6.668;2023-06-14T11:23:48;1.45;;;1.00;;
22070;SDS011;11200;51.488;6.668;2023-06-14T11:26:15;1.80;;;0.95;;
22070;SDS011;11200;51.488;6.668;2023-06-14T11:28:48;0.93;;;0.90;;
22070;SDS011;11200;51.488;6.668;2023-06-14T11:31:21;2.25;;;1.00;;
22070;SDS011;11200;51.488;6.668;2023-06-14T11:33:49;1.10;;;1.00;;
22070;SDS011;11200;51.488;6.668;2023-06-14T11:36:15;1.20;;;1.02;;
22070;SDS011;11200;51.488;6.668;2023-06-14T11:38:41;2.03;;;1.13;;
22070;SDS011;11200;51.488;6.668;2023-06-14T11:41:07;2.25;;;1.10;;
22070;SDS011;11200;51.488;6.668;2023-06-14T11:43:32;1.30;;;1.00;;
22070;SDS011;11200;51.488;6.668;2023-06-14T11:45:59;1.10;;;1.00;;
22070;SDS011;11200;51.488;6.668;2023-06-14T11:48:35;1.33;;;1.05;;
22070;SDS011;11200;51.488;6.668;2023-06-14T11:51:05;1.33;;;1.10;;
22070;SDS011;11200;51.488;6.668;2023-06-14T11:53:31;2.35;;;1.10;;
22070;SDS011;11200;51.488;6.668;2023-06-14T11:55:57;1.75;;;1.10;;
22070;SDS011;11200;51.488;6.668;2023-06-14T11:58:23;1.23;;;1.10;;
22070;SDS011;11200;51.488;6.668;2023-06-14T12:00:50;1.25;;;1.13;;
22070;SDS011;11200;51.488;6.668;2023-06-14T12:06:28;1.77;;;1.00;;
22070;SDS011;11200;51.488;6.668;2023-06-14T12:08:57;3.75;;;1.20;;
22070;SDS011;11200;51.488;6.668;2023-06-14T12:11:23;2.45;;;1.08;;
22070;SDS011;11200;51.488;6.668;2023-06-14T12:13:53;1.70;;;1.00;;
22070;SDS011;11200;51.488;6.668;2023-06-14T12:16:18;2.63;;;1.40;;
22070;SDS011;11200;51.488;6.668;2023-06-14T12:18:44;1.60;;;1.25;;
22070;SDS011;11200;51.488;6.668;2023-06-14T12:21:10;1.20;;;1.10;;
22070;SDS011;11200;51.488;6.668;2023-06-14T12:26:04;2.35;;;1.30;;
22070;SDS011;11200;51.488;6.668;2023-06-14T12:28:31;7.50;;;1.42;;
22070;SDS011;11200;51.488;6.668;2023-06-14T12:30:56;1.83;;;1.20;;
22070;SDS011;11200;51.488;6.668;2023-06-14T12:33:23;1.92;;;1.30;;
22070;SDS011;11200;51.488;6.668;2023-06-14T12:35:50;2.92;;;1.35;;
22070;SDS011;11200;51.488;6.668;2023-06-14T12:38:16;1.60;;;1.20;;
22070;SDS011;11200;51.488;6.668;2023-06-14T12:40:42;1.35;;;1.25;;
22070;SDS011;11200;51.488;6.668;2023-06-14T12:43:07;1.92;;;1.30;;
22070;SDS011;11200;51.488;6.668;2023-06-14T12:45:33;2.10;;;1.30;;
22070;SDS011;11200;51.488;6.668;2023-06-14T12:47:59;1.40;;;1.30;;
22070;SDS011;11200;51.488;6.668;2023-06-14T12:50:24;1.73;;;1.35;;
22070;SDS011;11200;51.488;6.668;2023-06-14T12:52:50;1.45;;;1.20;;
22070;SDS011;11200;51.488;6.668;2023-06-14T12:55:15;1.75;;;1.30;;
22070;SDS011;11200;51.488;6.668;2023-06-14T12:57:41;3.08;;;1.52;;
22070;SDS011;11200;51.488;6.668;2023-06-14T13:00:07;3.15;;;1.50;;
22070;SDS011;11200;51.488;6.668;2023-06-14T13:02:36;2.72;;;1.60;;
22070;SDS011;11200;51.488;6.668;2023-06-14T13:05:08;1.83;;;1.40;;
22070;SDS011;11200;51.488;6.668;2023-06-14T13:07:34;2.38;;;1.35;;
22070;SDS011;11200;51.488;6.668;2023-06-14T13:12:48;1.42;;;1.30;;
22070;SDS011;11200;51.488;6.668;2023-06-14T13:15:13;1.50;;;1.40;;
22070;SDS011;11200;51.488;6.668;2023-06-14T13:17:39;1.67;;;1.50;;
22070;SDS011;11200;51.488;6.668;2023-06-14T13:20:06;1.88;;;1.40;;
22070;SDS011;11200;51.488;6.668;2023-06-14T13:22:34;1.65;;;1.50;;
22070;SDS011;11200;51.488;6.668;2023-06-14T13:25:00;2.25;;;1.40;;
22070;SDS011;11200;51.488;6.668;2023-06-14T13:27:26;2.22;;;1.38;;
22070;SDS011;11200;51.488;6.668;2023-06-14T13:29:52;1.88;;;1.48;;
22070;SDS011;11200;51.488;6.668;2023-06-14T13:32:20;2.50;;;1.60;;
22070;SDS011;11200;51.488;6.668;2023-06-14T13:34:46;3.90;;;1.60;;
22070;SDS011;11200;51.488;6.668;2023-06-14T13:37:13;1.40;;;1.30;;
22070;SDS011;11200;51.488;6.668;2023-06-14T13:39:38;1.70;;;1.60;;
22070;SDS011;11200;51.488;6.668;2023-06-14T13:42:04;3.65;;;1.60;;
22070;SDS011;11200;51.488;6.668;2023-06-14T13:44:30;3.05;;;1.60;;
22070;SDS011;11200;51.488;6.668;2023-06-14T13:46:56;5.30;;;1.60;;
22070;SDS011;11200;51.488;6.668;2023-06-14T13:49:22;2.20;;;1.65;;
22070;SDS011;11200;51.488;6.668;2023-06-14T13:51:47;3.33;;;1.85;;
22070;SDS011;11200;51.488;6.668;2023-06-14T13:54:14;2.15;;;1.70;;
22070;SDS011;11200;51.488;6.668;2023-06-14T13:56:40;3.70;;;2.10;;
22070;SDS011;11200;51.488;6.668;2023-06-14T13:59:06;5.18;;;2.05;;
22070;SDS011;11200;51.488;6.668;2023-06-14T14:01:35;2.22;;;2.00;;
22070;SDS011;11200;51.488;6.668;2023-06-14T14:04:01;2.33;;;1.85;;
22070;SDS011;11200;51.488;6.668;2023-06-14T14:06:27;2.28;;;2.00;;
22070;SDS011;11200;51.488;6.668;2023-06-14T14:08:52;3.10;;;2.00;;
22070;SDS011;11200;51.488;6.668;2023-06-14T14:11:18;2.13;;;1.67;;
22070;SDS011;11200;51.488;6.668;2023-06-14T14:13:45;2.08;;;1.77;;
22070;SDS011;11200;51.488;6.668;2023-06-14T14:16:11;2.58;;;1.70;;
22070;SDS011;11200;51.488;6.668;2023-06-14T14:18:38;1.92;;;1.63;;
22070;SDS011;11200;51.488;6.668;2023-06-14T14:21:03;4.28;;;1.83;;
22070;SDS011;11200;51.488;6.668;2023-06-14T14:23:29;2.63;;;1.90;;
22070;SDS011;11200;51.488;6.668;2023-06-14T14:25:55;1.60;;;1.50;;
22070;SDS011;11200;51.488;6.668;2023-06-14T14:28:21;2.05;;;1.88;;
22070;SDS011;11200;51.488;6.668;2023-06-14T14:30:47;3.50;;;1.90;;
22070;SDS011;11200;51.488;6.668;2023-06-14T14:33:13;2.67;;;1.80;;
22070;SDS011;11200;51.488;6.668;2023-06-14T14:35:43;2.03;;;1.80;;
22070;SDS011;11200;51.488;6.668;2023-06-14T14:38:22;2.28;;;1.85;;
22070;SDS011;11200;51.488;6.668;2023-06-14T14:40:48;2.90;;;1.90;;
22070;SDS011;11200;51.488;6.668;2023-06-14T14:43:13;1.52;;;1.42;;
22070;SDS011;11200;51.488;6.668;2023-06-14T14:45:39;2.50;;;2.00;;
22070;SDS011;11200;51.488;6.668;2023-06-14T14:48:05;3.60;;;1.80;;
22070;SDS011;11200;51.488;6.668;2023-06-14T14:50:31;3.38;;;2.10;;
22070;SDS011;11200;51.488;6.668;2023-06-14T14:52:57;2.10;;;1.90;;
22070;SDS011;11200;51.488;6.668;2023-06-14T14:55:22;2.08;;;1.80;;
22070;SDS011;11200;51.488;6.668;2023-06-14T14:57:48;2.92;;;1.73;;
22070;SDS011;11200;51.488;6.668;2023-06-14T15:00:16;2.72;;;1.80;;
22070;SDS011;11200;51.488;6.668;2023-06-14T15:02:42;2.47;;;2.00;;
22070;SDS011;11200;51.488;6.668;2023-06-14T15:05:08;3.42;;;1.65;;
22070;SDS011;11200;51.488;6.668;2023-06-14T15:07:33;1.80;;;1.70;;
22070;SDS011;11200;51.488;6.668;2023-06-14T15:09:59;1.92;;;1.70;;
22070;SDS011;11200;51.488;6.668;2023-06-14T15:12:25;2.75;;;2.00;;
22070;SDS011;11200;51.488;6.668;2023-06-14T15:14:51;3.38;;;1.90;;
22070;SDS011;11200;51.488;6.668;2023-06-14T15:17:18;2.55;;;1.88;;
22070;SDS011;11200;51.488;6.668;2023-06-14T15:19:45;3.15;;;1.90;;
22070;SDS011;11200;51.488;6.668;2023-06-14T15:22:14;2.55;;;1.75;;
22070;SDS011;11200;51.488;6.668;2023-06-14T15:24:41;1.92;;;1.73;;
22070;SDS011;11200;51.488;6.668;2023-06-14T15:27:07;3.05;;;1.77;;